createdAt,value
2023-04-14T07:01:04.036Z,95892.19
2023-04-14T07:02:06.177Z,95884.13
2023-04-14T07:03:07.790Z,95882.66
2023-04-14T07:04:10.063Z,95877.81
2023-04-14T07:05:11.608Z,95882.03
2023-04-14T07:06:16.918Z,95879.91
2023-04-14T07:07:18.427Z,95880.09
2023-04-14T07:08:20.454Z,95877.94
2023-04-14T07:09:22.773Z,95877.84
2023-04-14T07:10:24.200Z,95880.25
2023-04-14T07:11:25.657Z,95875.44
2023-04-14T07:12:27.075Z,95878.03
2023-04-14T07:13:29.435Z,95876.44
2023-04-14T07:14:32.138Z,95876.59
2023-04-14T07:15:33.503Z,95868.22
2023-04-14T07:16:35.005Z,95869.03
2023-04-14T07:17:36.687Z,95872.66
2023-04-14T07:18:38.236Z,95879.38
2023-04-14T07:19:39.637Z,95866.22
2023-04-14T07:20:41.602Z,95875.16
2023-04-14T07:21:44.785Z,95872.41
2023-04-14T07:22:46.369Z,95870.34
2023-04-14T07:23:47.732Z,95861.84
2023-04-14T07:24:49.246Z,95859.91
2023-04-14T07:25:55.641Z,95863.63
2023-04-14T07:26:57.077Z,95857.56
2023-04-14T07:28:03.627Z,95855.22
2023-04-14T07:29:05.537Z,95856.81
2023-04-14T07:30:07.948Z,95860.09
2023-04-14T07:31:10.204Z,95850.84
2023-04-14T07:32:13.584Z,95853.84
2023-04-14T07:33:19.114Z,95857.94
2023-04-14T07:34:20.649Z,95856.06
2023-04-14T07:35:24.985Z,95856.34
2023-04-14T07:36:26.447Z,95852.88
2023-04-14T07:37:28.396Z,95853.28
2023-04-14T07:38:29.960Z,95849.22
2023-04-14T07:39:31.338Z,95851.84
2023-04-14T07:40:32.718Z,95858.34
2023-04-14T07:41:34.294Z,95853.63
2023-04-14T07:42:36.703Z,95854.94
2023-04-14T07:43:39.953Z,95852.38
2023-04-14T07:44:41.486Z,95854.47
2023-04-14T07:45:43.274Z,95854.44
2023-04-14T07:46:44.716Z,95859.03
2023-04-14T07:47:46.887Z,95855.19
2023-04-14T07:48:48.394Z,95852.50
2023-04-14T07:49:49.819Z,95857.16
2023-04-14T07:50:51.251Z,95852.59
2023-04-14T07:51:52.677Z,95846.97
2023-04-14T07:52:54.204Z,95842.75
2023-04-14T07:53:56.041Z,95855.72
2023-04-14T07:54:57.445Z,95847.78
2023-04-14T07:55:59.471Z,95854.94
2023-04-14T07:57:01.321Z,95835.53
2023-04-14T07:58:03.097Z,95843.28
2023-04-14T07:59:04.491Z,95851.91
2023-04-14T08:00:06.601Z,95842.16
2023-04-14T08:01:08.044Z,95845.31
2023-04-14T08:02:09.915Z,95847.19
2023-04-14T08:03:11.640Z,95844.63
2023-04-14T08:04:13.336Z,95853.22
2023-04-14T08:05:15.036Z,95852.44
2023-04-14T08:06:16.790Z,95840.16
2023-04-14T08:07:18.242Z,95835.91
2023-04-14T08:08:19.634Z,95840.22
2023-04-14T08:09:21.081Z,95848.38
2023-04-14T08:10:22.516Z,95845.66
2023-04-14T08:11:24.288Z,95856.69
2023-04-14T08:12:25.981Z,95844.34
2023-04-14T08:13:28.068Z,95851.41
2023-04-14T08:14:29.572Z,95852.09
2023-04-14T08:15:32.095Z,95844.34
2023-04-14T08:16:36.762Z,95851.97
2023-04-14T08:17:38.472Z,95855.19
2023-04-14T08:18:40.682Z,95854.06
2023-04-14T08:19:42.172Z,95857.00
2023-04-14T08:20:44.209Z,95855.09
2023-04-14T08:21:45.923Z,95844.97
2023-04-14T08:22:47.383Z,95855.88
2023-04-14T08:23:48.932Z,95852.16
2023-04-14T08:24:50.653Z,95857.84
2023-04-14T08:25:52.029Z,95859.69
2023-04-14T08:26:54.773Z,95839.75
2023-04-14T08:27:56.174Z,95861.31
2023-04-14T08:28:57.604Z,95846.84
2023-04-14T08:29:59.223Z,95856.88
2023-04-14T08:31:00.594Z,95863.88
2023-04-14T08:32:01.999Z,95855.66
2023-04-14T08:33:03.673Z,95860.84
2023-04-14T08:34:05.333Z,95863.94
2023-04-14T08:35:36.837Z,95861.91
2023-04-14T08:36:28.528Z,95866.09
2023-04-14T08:37:29.908Z,95860.97
2023-04-14T08:38:31.453Z,95853.81
2023-04-14T08:39:32.879Z,95859.16
2023-04-14T08:40:42.900Z,95853.13
2023-04-14T08:41:44.386Z,95862.28
2023-04-14T08:42:46.280Z,95856.00
2023-04-14T08:43:47.801Z,95854.75
2023-04-14T08:44:49.280Z,95856.28
2023-04-14T08:45:52.973Z,95854.44
2023-04-14T08:46:55.844Z,95852.88
2023-04-14T08:47:58.661Z,95857.19
2023-04-14T08:49:05.703Z,95858.84
2023-04-14T08:50:13.491Z,95856.16
2023-04-14T08:51:32.207Z,95844.09
2023-04-14T08:52:36.864Z,95852.97
2023-04-14T08:53:45.746Z,95852.34
2023-04-14T08:54:50.190Z,95855.50
2023-04-14T08:55:52.618Z,95850.97
2023-04-14T08:56:58.442Z,95856.38
2023-04-14T08:58:02.419Z,95853.25
2023-04-14T08:59:06.797Z,95845.59
2023-04-14T09:00:09.689Z,95853.53
2023-04-14T09:01:12.056Z,95850.94
2023-04-14T09:02:14.334Z,95849.88
2023-04-14T09:03:16.519Z,95859.03
2023-04-14T09:04:20.274Z,95855.09
2023-04-14T09:05:21.931Z,95848.88
2023-04-14T09:06:24.066Z,95852.03
2023-04-14T09:07:26.632Z,95855.13
2023-04-14T09:08:33.832Z,95852.84
2023-04-14T09:09:35.385Z,95849.78
2023-04-14T09:10:38.136Z,95844.00
2023-04-14T09:11:41.579Z,95860.44
2023-04-14T09:12:43.880Z,95854.00
2023-04-14T09:13:45.546Z,95852.81
2023-04-14T09:14:48.356Z,95851.56
2023-04-14T09:15:49.986Z,95850.13
2023-04-14T09:16:53.828Z,95856.63
2023-04-14T09:17:55.540Z,95856.25
2023-04-14T09:19:00.057Z,95859.38
2023-04-14T09:20:37.434Z,95853.81
2023-04-14T09:21:52.524Z,95853.25
2023-04-14T09:22:53.240Z,95851.63
2023-04-14T09:23:54.938Z,95849.66
2023-04-14T09:24:57.389Z,95847.25
2023-04-14T09:25:58.919Z,95848.84
2023-04-14T09:27:03.675Z,95840.78
2023-04-14T09:28:05.054Z,95853.94
2023-04-14T09:29:06.636Z,95849.59
2023-04-14T09:30:09.656Z,95840.41
2023-04-14T09:31:11.484Z,95841.88
2023-04-14T09:32:12.989Z,95842.59
2023-04-14T09:34:28.550Z,95849.88
2023-04-14T09:35:45.624Z,95846.19
2023-04-14T09:37:04.626Z,95839.78
2023-04-14T09:38:06.855Z,95844.34
2023-04-14T09:39:17.856Z,95846.63
2023-04-14T09:40:29.144Z,95846.66
2023-04-14T09:41:31.550Z,95848.19
2023-04-14T09:42:40.977Z,95847.84
2023-04-14T09:43:42.877Z,95851.09
2023-04-14T09:44:58.047Z,95850.50
2023-04-14T09:46:08.621Z,95851.94
2023-04-14T09:47:10.532Z,95854.06
2023-04-14T09:48:15.544Z,95853.44
2023-04-14T09:49:17.012Z,95854.38
2023-04-14T09:50:18.543Z,95853.03
2023-04-14T09:51:29.886Z,95858.09
2023-04-14T09:52:39.815Z,95847.84
2023-04-14T09:53:41.306Z,95856.25
2023-04-14T09:54:43.193Z,95842.50
2023-04-14T09:55:45.435Z,95851.00
2023-04-14T09:56:46.886Z,95853.22
2023-04-14T09:57:48.381Z,95844.69
2023-04-14T09:58:50.327Z,95845.66
2023-04-14T09:59:51.785Z,95852.81
2023-04-14T10:00:53.162Z,95856.06
2023-04-14T10:01:58.481Z,95851.59
2023-04-14T10:03:01.438Z,95855.44
2023-04-14T10:04:03.282Z,95839.88
2023-04-14T10:05:06.463Z,95848.94
2023-04-14T10:06:10.586Z,95846.72
2023-04-14T10:07:12.401Z,95851.78
2023-04-14T10:08:13.922Z,95847.19
2023-04-14T10:09:23.099Z,95846.06
2023-04-14T10:10:24.421Z,95844.63
2023-04-14T10:11:29.365Z,95834.22
2023-04-14T10:12:31.284Z,95842.84
2023-04-14T10:13:32.754Z,95838.44
2023-04-14T10:14:34.473Z,95838.59
2023-04-14T10:15:36.056Z,95834.63
2023-04-14T10:16:37.442Z,95833.19
2023-04-14T10:17:39.408Z,95836.06
2023-04-14T10:18:40.923Z,95841.66
2023-04-14T10:19:43.027Z,95825.53
2023-04-14T10:20:44.591Z,95839.19
2023-04-14T10:21:46.101Z,95806.75
2023-04-14T10:22:48.067Z,95833.03
2023-04-14T10:23:50.572Z,95826.13
2023-04-14T10:24:52.468Z,95836.59
2023-04-14T10:25:54.829Z,95828.53
2023-04-14T10:26:57.439Z,95821.28
2023-04-14T10:27:59.013Z,95827.81
2023-04-14T10:29:02.834Z,95823.13
2023-04-14T10:30:06.468Z,95824.13
2023-04-14T10:31:11.903Z,95824.41
2023-04-14T10:32:16.159Z,95806.84
2023-04-14T10:33:17.635Z,95816.22
2023-04-14T10:34:19.482Z,95819.75
2023-04-14T10:35:21.435Z,95815.75
2023-04-14T10:36:27.996Z,95824.03
2023-04-14T10:37:29.623Z,95821.94
2023-04-14T10:38:38.341Z,95812.59
2023-04-14T10:39:41.024Z,95816.19
2023-04-14T10:40:47.192Z,95816.34
2023-04-14T10:41:52.993Z,95822.88
2023-04-14T10:42:55.709Z,95803.53
2023-04-14T10:43:57.083Z,95816.00
2023-04-14T10:45:05.826Z,95813.66
2023-04-14T10:46:10.225Z,95809.09
2023-04-14T10:47:23.429Z,95811.69
2023-04-14T10:48:33.652Z,95809.59
2023-04-14T10:49:40.169Z,95809.03
2023-04-14T10:50:48.837Z,95808.44
2023-04-14T10:51:50.345Z,95804.06
2023-04-14T10:52:55.913Z,95806.16
2023-04-14T10:53:58.053Z,95803.31
2023-04-14T10:55:09.499Z,95800.41
2023-04-14T10:56:11.230Z,95789.84
2023-04-14T10:57:14.583Z,95792.09
2023-04-14T10:58:20.932Z,95799.41
2023-04-14T10:59:22.361Z,95786.94
2023-04-14T11:00:28.974Z,95792.63
2023-04-14T11:01:32.665Z,95792.13
2023-04-14T11:02:35.056Z,95792.50
2023-04-14T11:03:44.984Z,95787.59
2023-04-14T11:04:58.615Z,95797.44
2023-04-14T11:06:00.049Z,95788.19
2023-04-14T11:07:09.324Z,95780.50
2023-04-14T11:08:35.369Z,95781.75
2023-04-14T11:09:37.313Z,95783.06
2023-04-14T11:10:38.818Z,95784.97
2023-04-14T11:11:42.142Z,95785.06
2023-04-14T11:12:45.025Z,95783.81
2023-04-14T11:14:12.499Z,95783.88
2023-04-14T11:15:16.194Z,95775.75
2023-04-14T11:16:27.933Z,95781.34
2023-04-14T11:17:34.071Z,95771.34
2023-04-14T11:18:46.323Z,95764.81
2023-04-14T11:19:48.175Z,95765.69
2023-04-14T11:20:52.029Z,95765.28
2023-04-14T11:21:54.058Z,95762.25
2023-04-14T11:22:58.789Z,95756.28
2023-04-14T11:24:00.829Z,95758.38
2023-04-14T11:25:02.367Z,95759.34
2023-04-14T11:26:08.354Z,95744.06
2023-04-14T11:27:11.450Z,95758.81
2023-04-14T11:28:13.070Z,95758.00
2023-04-14T11:29:14.463Z,95764.03
2023-04-14T11:30:20.394Z,95756.09
2023-04-14T11:31:27.423Z,95759.75
2023-04-14T11:32:29.302Z,95754.06
2023-04-14T11:33:32.046Z,95764.50
2023-04-14T11:34:34.373Z,95758.78
2023-04-14T11:35:36.022Z,95756.97
2023-04-14T11:36:39.221Z,95755.84
2023-04-14T11:37:41.078Z,95752.56
2023-04-14T11:38:43.196Z,95758.47
2023-04-14T11:39:44.745Z,95751.88
2023-04-14T11:40:49.834Z,95744.72
2023-04-14T11:41:51.564Z,95754.38
2023-04-14T11:42:58.003Z,95749.22
2023-04-14T11:43:59.473Z,95757.00
2023-04-14T11:45:03.803Z,95750.00
2023-04-14T11:46:08.017Z,95750.25
2023-04-14T11:47:09.387Z,95750.56
2023-04-14T11:48:12.399Z,95752.56
2023-04-14T11:49:13.856Z,95746.13
2023-04-14T11:50:16.920Z,95735.53
2023-04-14T11:51:18.881Z,95742.94
2023-04-14T11:52:21.144Z,95730.09
2023-04-14T11:53:22.925Z,95732.94
2023-04-14T11:54:35.018Z,95731.03
2023-04-14T11:55:37.065Z,95735.25
2023-04-14T11:56:39.387Z,95737.22
2023-04-14T11:57:47.111Z,95735.09
2023-04-14T11:58:48.992Z,95730.63
2023-04-14T11:59:50.707Z,95739.00
2023-04-14T12:00:55.674Z,95736.09
2023-04-14T12:01:58.395Z,95730.28
2023-04-14T12:03:03.588Z,95729.28
2023-04-14T12:04:06.438Z,95728.53
2023-04-14T12:05:08.411Z,95717.28
2023-04-14T12:06:10.291Z,95720.31
2023-04-14T12:07:17.084Z,95726.31
2023-04-14T12:08:18.531Z,95721.94
2023-04-14T12:09:19.898Z,95726.38
2023-04-14T12:10:22.055Z,95718.22
2023-04-14T12:11:24.006Z,95711.25
2023-04-14T12:12:28.809Z,95716.41
2023-04-14T12:13:30.823Z,95718.25
2023-04-14T12:14:32.390Z,95719.94
2023-04-14T12:15:38.678Z,95724.72
2023-04-14T12:16:40.787Z,95722.91
2023-04-14T12:17:42.689Z,95726.56
2023-04-14T12:18:44.576Z,95723.78
2023-04-14T12:19:46.326Z,95715.88
2023-04-14T12:20:53.148Z,95719.66
2023-04-14T12:21:54.576Z,95716.22
2023-04-14T12:23:04.317Z,95723.66
2023-04-14T12:24:06.105Z,95710.19
2023-04-14T12:25:13.522Z,95715.44
2023-04-14T12:26:15.919Z,95704.69
2023-04-14T12:27:22.412Z,95712.06
2023-04-14T12:28:29.293Z,95708.38
2023-04-14T12:29:33.140Z,95707.63
2023-04-14T12:30:36.039Z,95704.94
2023-04-14T12:31:43.106Z,95699.19
2023-04-14T12:32:46.174Z,95704.25
2023-04-14T12:33:49.976Z,95697.22
2023-04-14T12:34:57.722Z,95695.78
2023-04-14T12:36:03.277Z,95695.31
2023-04-14T12:37:12.073Z,95695.03
2023-04-14T12:38:14.774Z,95690.38
2023-04-14T12:39:16.457Z,95688.03
2023-04-14T12:40:18.408Z,95684.03
2023-04-14T12:41:23.835Z,95692.63
2023-04-14T12:42:27.233Z,95675.16
2023-04-14T12:43:37.347Z,95678.88
2023-04-14T12:44:38.951Z,95680.97
2023-04-14T12:45:51.088Z,95680.75
2023-04-14T12:46:53.709Z,95678.69
2023-04-14T12:47:56.849Z,95674.38
2023-04-14T12:48:58.634Z,95673.69
2023-04-14T12:50:02.205Z,95680.50
2023-04-14T12:51:12.626Z,95673.81
2023-04-14T12:52:37.185Z,95672.00
2023-04-14T12:53:39.357Z,95657.97
2023-04-14T12:54:48.348Z,95670.44
2023-04-14T12:56:08.303Z,95671.19
2023-04-14T12:57:09.781Z,95666.25
2023-04-14T12:58:11.214Z,95661.97
2023-04-14T12:59:12.729Z,95668.50
2023-04-14T13:00:14.542Z,95668.28
2023-04-14T13:01:18.363Z,95662.97
2023-04-14T13:02:19.931Z,95670.03
2023-04-14T13:03:21.523Z,95657.78
2023-04-14T13:04:23.237Z,95671.41
2023-04-14T13:05:24.819Z,95658.22
2023-04-14T13:06:26.167Z,95659.19
2023-04-14T13:07:27.507Z,95653.59
2023-04-14T13:08:29.498Z,95665.88
2023-04-14T13:09:31.712Z,95657.44
2023-04-14T13:10:33.217Z,95661.44
2023-04-14T13:11:34.684Z,95646.81
2023-04-14T13:12:36.072Z,95649.75
2023-04-14T13:13:37.679Z,95651.75
2023-04-14T13:14:39.186Z,95655.16
2023-04-14T13:16:12.108Z,95646.84
2023-04-14T13:17:02.983Z,95633.03
2023-04-14T13:18:04.686Z,95640.09
2023-04-14T13:19:06.293Z,95642.50
2023-04-14T13:20:08.808Z,95637.66
2023-04-14T13:21:10.621Z,95643.00
2023-04-14T13:22:14.224Z,95629.69
2023-04-14T13:23:15.853Z,95641.66
2023-04-14T13:24:17.283Z,95637.84
2023-04-14T13:25:18.620Z,95640.00
2023-04-14T13:26:20.010Z,95640.44
2023-04-14T13:27:21.456Z,95638.78
2023-04-14T13:28:22.915Z,95637.38
2023-04-14T13:29:24.300Z,95637.53
2023-04-14T13:30:25.650Z,95638.16
2023-04-14T13:31:27.082Z,95637.78
2023-04-14T13:32:28.531Z,95636.16
2023-04-14T13:33:29.965Z,95629.75
2023-04-14T13:34:32.419Z,95630.16
2023-04-14T13:35:33.834Z,95625.78
2023-04-14T13:36:35.306Z,95633.16
2023-04-14T13:37:36.671Z,95629.06
2023-04-14T13:38:38.134Z,95624.16
2023-04-14T13:39:39.833Z,95620.16
2023-04-14T13:40:41.308Z,95619.91
2023-04-14T13:41:43.482Z,95618.25
2023-04-14T13:42:45.206Z,95625.13
2023-04-14T13:43:46.798Z,95616.41
2023-04-14T13:44:48.722Z,95618.72
2023-04-14T13:45:50.286Z,95617.47
2023-04-14T13:46:52.274Z,95605.31
2023-04-14T13:47:54.074Z,95615.09
2023-04-14T13:48:55.454Z,95616.41
2023-04-14T13:49:56.822Z,95622.44
2023-04-14T13:50:59.392Z,95611.63
2023-04-14T13:52:00.732Z,95607.00
2023-04-14T13:53:02.179Z,95610.47
2023-04-14T13:54:03.765Z,95605.09
2023-04-14T13:55:05.489Z,95612.50
2023-04-14T13:56:07.066Z,95602.34
2023-04-14T13:57:08.465Z,95599.25
2023-04-14T13:58:09.901Z,95598.38
2023-04-14T13:59:11.412Z,95600.09
2023-04-14T14:00:13.513Z,95607.63
2023-04-14T14:01:14.893Z,95599.06
2023-04-14T14:02:16.530Z,95601.81
2023-04-14T14:03:18.169Z,95597.75
2023-04-14T14:04:19.781Z,95595.03
2023-04-14T14:05:21.246Z,95586.66
2023-04-14T14:06:22.647Z,95590.38
2023-04-14T14:07:24.032Z,95590.31
2023-04-14T14:08:25.373Z,95565.22
2023-04-14T14:09:27.544Z,95594.53
2023-04-14T14:10:29.141Z,95578.66
2023-04-14T14:11:31.444Z,95588.59
2023-04-14T14:12:32.837Z,95579.53
2023-04-14T14:13:36.858Z,95585.66
2023-04-14T14:14:38.403Z,95581.78
2023-04-14T14:15:39.974Z,95588.41
2023-04-14T14:16:41.476Z,95578.97
2023-04-14T14:17:42.966Z,95578.13
2023-04-14T14:18:46.386Z,95577.06
2023-04-14T14:19:48.236Z,95572.47
2023-04-14T14:20:49.631Z,95583.88
2023-04-14T14:21:51.400Z,95577.31
2023-04-14T14:22:52.817Z,95578.88
2023-04-14T14:23:54.145Z,95582.06
2023-04-14T14:25:10.961Z,95578.59
2023-04-14T14:26:17.470Z,95580.09
2023-04-14T14:27:18.821Z,95568.41
2023-04-14T14:28:21.204Z,95574.16
2023-04-14T14:29:22.930Z,95572.47
2023-04-14T14:30:24.326Z,95572.31
2023-04-14T14:31:25.994Z,95569.28
2023-04-14T14:32:27.432Z,95569.78
2023-04-14T14:33:28.963Z,95567.31
2023-04-14T14:34:30.388Z,95566.56
2023-04-14T14:35:31.892Z,95562.63
2023-04-14T14:36:33.321Z,95563.44
2023-04-14T14:37:34.756Z,95567.31
2023-04-14T14:38:37.169Z,95567.19
2023-04-14T14:39:38.606Z,95546.25
2023-04-14T14:40:40.132Z,95556.84
2023-04-14T14:41:42.077Z,95568.66
2023-04-14T14:42:44.488Z,95566.72
2023-04-14T14:43:45.885Z,95564.88
2023-04-14T14:44:47.365Z,95562.72
2023-04-14T14:45:48.777Z,95572.34
2023-04-14T14:46:52.849Z,95572.41
2023-04-14T14:47:54.405Z,95562.88
2023-04-14T14:48:55.840Z,95568.34
2023-04-14T14:50:02.677Z,95568.72
2023-04-14T14:51:05.942Z,95559.09
2023-04-14T14:52:07.426Z,95571.53
2023-04-14T14:53:09.606Z,95573.56
2023-04-14T14:54:11.068Z,95577.81
2023-04-14T14:55:12.504Z,95570.69
2023-04-14T14:56:13.904Z,95573.03
2023-04-14T14:57:15.298Z,95570.31
2023-04-14T14:58:16.629Z,95565.91
2023-04-14T14:59:17.956Z,95571.16
2023-04-14T15:00:19.545Z,95571.34
2023-04-14T15:01:20.977Z,95573.47
2023-04-14T15:02:22.751Z,95567.81
2023-04-14T15:03:24.566Z,95564.13
2023-04-14T15:04:26.407Z,95581.28
2023-04-14T15:05:27.863Z,95577.03
2023-04-14T15:06:29.250Z,95578.03
2023-04-14T15:07:31.430Z,95578.97
2023-04-14T15:08:33.081Z,95568.25
2023-04-14T15:09:34.440Z,95581.47
2023-04-14T15:10:35.900Z,95573.31
2023-04-14T15:11:37.448Z,95574.75
2023-04-14T15:12:38.817Z,95586.72
2023-04-14T15:13:40.336Z,95590.59
2023-04-14T15:14:42.216Z,95584.06
2023-04-14T15:15:43.632Z,95589.84
2023-04-14T15:16:45.261Z,95583.56
2023-04-14T15:17:46.887Z,95580.00
2023-04-14T15:18:48.299Z,95568.78
2023-04-14T15:19:49.713Z,95578.72
2023-04-14T15:20:53.751Z,95580.59
2023-04-14T15:21:55.119Z,95579.56
2023-04-14T15:22:56.503Z,95576.81
2023-04-14T15:23:58.508Z,95568.75
2023-04-14T15:24:59.871Z,95581.22
2023-04-14T15:26:01.694Z,95582.91
2023-04-14T15:27:03.427Z,95570.00
2023-04-14T15:28:04.817Z,95580.16
2023-04-14T15:29:06.339Z,95582.78
2023-04-14T15:30:08.481Z,95583.72
2023-04-14T15:31:09.872Z,95573.81
2023-04-14T15:32:12.057Z,95579.97
2023-04-14T15:33:13.433Z,95577.28
2023-04-14T15:34:14.815Z,95579.78
2023-04-14T15:35:16.745Z,95585.34
2023-04-14T15:36:18.142Z,95582.66
2023-04-14T15:37:19.628Z,95577.72
2023-04-14T15:38:21.089Z,95578.13
2023-04-14T15:39:22.656Z,95572.13
2023-04-14T15:40:24.120Z,95568.59
2023-04-14T15:41:25.985Z,95572.66
2023-04-14T15:42:27.359Z,95563.88
2023-04-14T15:43:29.056Z,95572.41
2023-04-14T15:44:30.441Z,95567.91
2023-04-14T15:45:31.992Z,95572.81
2023-04-14T15:46:33.410Z,95566.00
2023-04-14T15:47:34.873Z,95566.75
2023-04-14T15:48:36.267Z,95566.84
2023-04-14T15:49:37.593Z,95569.75
2023-04-14T15:50:44.664Z,95567.47
2023-04-14T15:51:46.527Z,95563.56
2023-04-14T15:52:49.470Z,95570.88
2023-04-14T15:53:51.683Z,95570.81
2023-04-14T15:54:53.072Z,95568.13
2023-04-14T15:55:54.537Z,95569.03
2023-04-14T15:56:56.094Z,95571.94
2023-04-14T15:57:57.589Z,95563.72
2023-04-14T15:58:58.952Z,95566.34
2023-04-14T16:00:01.931Z,95566.03
2023-04-14T16:01:07.283Z,95558.34
2023-04-14T16:02:08.784Z,95564.69
2023-04-14T16:03:11.900Z,95566.34
2023-04-14T16:04:13.423Z,95571.50
2023-04-14T16:05:14.969Z,95574.50
2023-04-14T16:06:16.905Z,95573.84
2023-04-14T16:07:18.297Z,95576.34
2023-04-14T16:08:19.836Z,95575.66
2023-04-14T16:09:21.312Z,95576.03
2023-04-14T16:10:23.217Z,95570.53
2023-04-14T16:11:25.140Z,95570.59
2023-04-14T16:12:27.510Z,95576.25
2023-04-14T16:13:29.656Z,95578.13
2023-04-14T16:14:32.315Z,95567.31
2023-04-14T16:15:34.997Z,95574.47
2023-04-14T16:16:36.796Z,95574.31
2023-04-14T16:17:38.240Z,95568.88
2023-04-14T16:18:39.580Z,95571.03
2023-04-14T16:19:41.085Z,95564.63
2023-04-14T16:20:42.591Z,95573.00
2023-04-14T16:21:44.010Z,95571.31
2023-04-14T16:22:46.361Z,95576.91
2023-04-14T16:23:47.719Z,95573.66
2023-04-14T16:24:49.116Z,95577.44
2023-04-14T16:25:50.539Z,95561.41
2023-04-14T16:26:51.863Z,95567.41
2023-04-14T16:27:53.507Z,95573.03
2023-04-14T16:28:54.871Z,95568.63
2023-04-14T16:29:56.595Z,95565.28
2023-04-14T16:31:02.772Z,95570.91
2023-04-14T16:32:04.279Z,95574.78
2023-04-14T16:33:05.920Z,95571.91
2023-04-14T16:34:07.820Z,95576.06
2023-04-14T16:35:09.509Z,95575.38
2023-04-14T16:36:11.213Z,95574.94
2023-04-14T16:37:12.968Z,95575.72
2023-04-14T16:38:14.349Z,95577.97
2023-04-14T16:39:15.732Z,95586.56
2023-04-14T16:40:17.404Z,95580.06
2023-04-14T16:41:18.842Z,95578.75
2023-04-14T16:42:23.960Z,95564.41
2023-04-14T16:43:28.624Z,95580.56
2023-04-14T16:44:30.542Z,95575.91
2023-04-14T16:45:32.128Z,95582.66
2023-04-14T16:46:33.650Z,95580.84
2023-04-14T16:47:35.806Z,95580.69
2023-04-14T16:48:37.248Z,95577.84
2023-04-14T16:49:38.639Z,95582.19
2023-04-14T16:50:40.538Z,95582.69
2023-04-14T16:51:42.377Z,95579.47
2023-04-14T16:52:43.865Z,95578.81
2023-04-14T16:53:45.290Z,95574.19
2023-04-14T16:54:46.673Z,95582.28
2023-04-14T16:55:48.124Z,95574.88
2023-04-14T16:56:49.463Z,95578.38
2023-04-14T16:57:50.944Z,95575.53
2023-04-14T16:58:52.405Z,95569.59
2023-04-14T16:59:53.853Z,95572.00
2023-04-14T17:00:55.698Z,95572.69
2023-04-14T17:01:57.672Z,95566.41
2023-04-14T17:02:59.368Z,95581.47
2023-04-14T17:04:01.103Z,95569.63
2023-04-14T17:05:03.473Z,95571.66
2023-04-14T17:06:05.262Z,95577.91
2023-04-14T17:07:07.047Z,95575.09
2023-04-14T17:08:08.407Z,95568.88
2023-04-14T17:09:09.824Z,95575.97
2023-04-14T17:10:11.839Z,95576.59
